Time;durP1;ratioP1;P1;durP2;ratioP2;P2;SDS_P1;SDS_P2;PMS_P1;PMS_P2;Temp;Humidity;BMP_temperature;BMP_pressure;BME280_temperature;BME280_humidity;BME280_pressure;Samples;Min_cycle;Max_cycle;Signal;HPM_P1;HPM_P2
2021/07/18 00:02:19;;;;;;;20.75;10.18;;;27.00;64.60;;;;;;6187554;28;86307;-66
2021/07/18 00:05:19;;;;;;;19.50;11.10;;;26.90;64.90;;;;;;6180278;28;83096;-67
2021/07/18 00:08:20;;;;;;;22.25;11.55;;;26.90;64.90;;;;;;6179690;28;83656;-66
2021/07/18 00:11:20;;;;;;;17.50;10.98;;;26.80;65.60;;;;;;6180021;28;83454;-66
2021/07/18 00:14:21;;;;;;;21.73;11.30;;;26.70;66.30;;;;;;6178355;28;84237;-66
2021/07/18 00:17:22;;;;;;;16.90;10.77;;;26.70;66.30;;;;;;6172659;28;83012;-65
2021/07/18 00:20:22;;;;;;;17.40;10.90;;;26.70;66.00;;;;;;6176859;28;84023;-65
2021/07/18 00:23:23;;;;;;;19.73;10.48;;;26.80;66.40;;;;;;6171059;28;84095;-65
2021/07/18 00:26:23;;;;;;;15.60;10.10;;;26.80;66.00;;;;;;6188058;28;83184;-65
2021/07/18 00:29:25;;;;;;;22.65;10.50;;;26.80;65.80;;;;;;6179900;28;82777;-65
2021/07/18 00:32:25;;;;;;;19.33;10.50;;;26.80;65.80;;;;;;6167932;28;83061;-66
2021/07/18 00:35:26;;;;;;;16.58;10.93;;;26.70;66.20;;;;;;6179898;28;85521;-66
2021/07/18 00:38:27;;;;;;;24.33;11.57;;;26.70;66.70;;;;;;6178747;28;83197;-65
2021/07/18 00:41:27;;;;;;;21.45;11.40;;;26.70;66.80;;;;;;6174441;28;83114;-64
2021/07/18 00:44:28;;;;;;;17.50;11.20;;;26.70;66.60;;;;;;6179309;28;83199;-65
2021/07/18 00:47:28;;;;;;;16.25;11.52;;;26.80;66.70;;;;;;6173191;28;84938;-64
2021/07/18 00:50:29;;;;;;;16.33;10.85;;;26.80;66.70;;;;;;6174982;28;83614;-65
2021/07/18 00:53:30;;;;;;;15.30;10.75;;;26.70;66.40;;;;;;6176296;28;84124;-65
2021/07/18 00:56:30;;;;;;;14.88;10.80;;;26.70;66.40;;;;;;6176630;28;83914;-65
2021/07/18 00:59:31;;;;;;;15.05;11.10;;;26.60;67.00;;;;;;6178648;28;83489;-65
2021/07/18 01:02:31;;;;;;;15.05;10.07;;;26.60;67.00;;;;;;6177869;28;84223;-64
2021/07/18 01:05:32;;;;;;;14.02;11.10;;;26.70;66.80;;;;;;6177204;28;84842;-65
2021/07/18 01:08:32;;;;;;;12.85;9.75;;;26.80;66.60;;;;;;6167683;28;83011;-65
2021/07/18 01:11:33;;;;;;;16.85;10.80;;;26.90;66.40;;;;;;6175874;28;84264;-66
2021/07/18 01:14:33;;;;;;;14.82;10.10;;;26.80;66.30;;;;;;6178309;28;85914;-65
2021/07/18 01:17:34;;;;;;;14.52;9.63;;;26.90;66.30;;;;;;6169140;28;83040;-65
2021/07/18 01:20:34;;;;;;;18.25;11.20;;;26.80;66.20;;;;;;6173705;28;82765;-65
2021/07/18 01:23:37;;;;;;;16.35;10.43;;;26.90;66.40;;;;;;6167914;28;82678;-65
2021/07/18 01:26:38;;;;;;;12.00;9.60;;;26.90;66.30;;;;;;6176654;28;83156;-64
2021/07/18 01:29:38;;;;;;;15.68;10.52;;;26.90;66.30;;;;;;6182665;28;88247;-64
2021/07/18 01:32:39;;;;;;;14.88;9.85;;;26.90;66.50;;;;;;6177556;28;83134;-65
2021/07/18 01:35:39;;;;;;;14.63;11.38;;;27.00;66.30;;;;;;6181915;28;83050;-67
2021/07/18 01:38:40;;;;;;;14.02;10.65;;;27.00;66.10;;;;;;6174957;28;83265;-66
2021/07/18 01:41:40;;;;;;;16.83;12.20;;;27.00;66.10;;;;;;6170702;28;83697;-67
2021/07/18 01:44:41;;;;;;;16.02;12.57;;;27.00;67.10;;;;;;6174314;28;84348;-67
2021/07/18 01:47:41;;;;;;;21.10;12.23;;;26.90;66.60;;;;;;6178415;28;83683;-65
2021/07/18 01:50:42;;;;;;;20.05;13.73;;;26.90;66.70;;;;;;6168869;28;83245;-65
2021/07/18 01:53:42;;;;;;;18.15;13.50;;;26.70;67.60;;;;;;6164578;28;85398;-65
2021/07/18 01:56:43;;;;;;;18.98;13.57;;;26.50;68.50;;;;;;6171267;28;84133;-65
2021/07/18 01:59:43;;;;;;;16.33;12.60;;;26.40;68.40;;;;;;6175895;28;84293;-66
2021/07/18 02:02:44;;;;;;;23.98;11.82;;;26.50;67.80;;;;;;6174429;28;85908;-66
2021/07/18 02:05:44;;;;;;;17.67;12.35;;;26.60;67.50;;;;;;6173441;28;84455;-66
2021/07/18 02:08:44;;;;;;;19.27;12.73;;;26.70;67.20;;;;;;6176436;28;84519;-65
2021/07/18 02:11:45;;;;;;;16.75;12.00;;;26.80;66.80;;;;;;6177302;28;83137;-66
2021/07/18 02:14:45;;;;;;;17.20;12.02;;;26.70;66.50;;;;;;6173704;28;83674;-66
2021/07/18 02:17:46;;;;;;;16.45;12.02;;;26.80;66.20;;;;;;6177704;28;83306;-67
2021/07/18 02:20:46;;;;;;;14.13;11.73;;;26.80;66.10;;;;;;6170309;28;83319;-66
2021/07/18 02:23:47;;;;;;;19.73;12.30;;;26.90;66.00;;;;;;6168960;28;83167;-66
2021/07/18 02:26:47;;;;;;;17.40;12.85;;;26.90;66.60;;;;;;6176412;28;83351;-66
2021/07/18 02:29:48;;;;;;;15.35;11.48;;;26.90;66.10;;;;;;6177809;28;83234;-66
2021/07/18 02:32:48;;;;;;;18.77;12.13;;;27.00;66.00;;;;;;6165945;28;83666;-65
2021/07/18 02:35:49;;;;;;;17.67;12.15;;;26.90;66.50;;;;;;6171334;28;83174;-65
2021/07/18 02:38:50;;;;;;;22.50;13.23;;;26.90;65.70;;;;;;6168826;28;84639;-65
2021/07/18 02:41:50;;;;;;;15.88;12.68;;;26.90;65.70;;;;;;6173982;28;83141;-66
2021/07/18 02:44:51;;;;;;;18.63;13.40;;;26.90;65.90;;;;;;6174838;28;83608;-65
2021/07/18 02:47:51;;;;;;;16.73;12.95;;;26.90;66.10;;;;;;6168264;28;83215;-65
2021/07/18 02:50:52;;;;;;;16.42;12.93;;;26.90;65.70;;;;;;6175788;28;83531;-65
2021/07/18 02:53:53;;;;;;;16.42;12.40;;;26.90;65.80;;;;;;6171586;28;84050;-65
2021/07/18 02:56:54;;;;;;;16.33;12.13;;;26.90;65.50;;;;;;6171991;28;83511;-65
2021/07/18 02:59:54;;;;;;;20.95;12.65;;;26.90;65.50;;;;;;6171979;28;84552;-66
2021/07/18 03:02:55;;;;;;;16.52;12.80;;;26.80;65.50;;;;;;6168858;28;83215;-65
2021/07/18 03:05:56;;;;;;;14.98;11.95;;;26.80;65.50;;;;;;6176879;28;83973;-66
2021/07/18 03:08:56;;;;;;;16.98;12.95;;;26.80;65.50;;;;;;6176735;28;83040;-66
2021/07/18 03:11:56;;;;;;;16.98;12.20;;;26.90;65.50;;;;;;6172159;28;82997;-66
2021/07/18 03:14:57;;;;;;;19.80;13.27;;;26.90;65.50;;;;;;6175927;28;83626;-66
2021/07/18 03:17:57;;;;;;;18.70;11.98;;;26.90;65.50;;;;;;6170329;28;82942;-66
2021/07/18 03:20:58;;;;;;;19.85;12.65;;;26.90;66.00;;;;;;6171818;28;83699;-66
2021/07/18 03:23:58;;;;;;;15.65;13.05;;;27.00;65.40;;;;;;6174813;28;90008;-66
2021/07/18 03:26:59;;;;;;;14.75;11.68;;;27.00;65.90;;;;;;6178273;28;83293;-65
2021/07/18 03:29:59;;;;;;;19.95;12.48;;;27.00;65.30;;;;;;6175760;28;83320;-66
2021/07/18 03:33:00;;;;;;;17.40;12.35;;;27.00;65.50;;;;;;6176802;28;84079;-65
2021/07/18 03:36:00;;;;;;;20.35;11.82;;;27.00;65.60;;;;;;6169662;28;85019;-65
2021/07/18 03:39:01;;;;;;;16.40;12.85;;;27.00;65.60;;;;;;6185025;28;85817;-65
2021/07/18 03:42:01;;;;;;;20.35;12.90;;;27.00;65.60;;;;;;6177379;28;84140;-65
2021/07/18 03:45:02;;;;;;;16.77;13.07;;;27.10;65.50;;;;;;6178895;28;83870;-65
2021/07/18 03:48:02;;;;;;;21.52;13.05;;;27.10;65.50;;;;;;6180851;28;82910;-65
2021/07/18 03:51:03;;;;;;;16.25;12.00;;;27.10;65.50;;;;;;6179717;28;83560;-65
2021/07/18 03:54:03;;;;;;;17.05;12.43;;;27.10;65.50;;;;;;6177946;28;83109;-65
2021/07/18 03:57:04;;;;;;;22.95;11.27;;;27.10;65.10;;;;;;6188369;28;83063;-65
2021/07/18 04:00:04;;;;;;;15.80;11.82;;;27.10;65.10;;;;;;6180159;28;84331;-65
2021/07/18 04:03:05;;;;;;;20.08;11.85;;;27.10;64.90;;;;;;6173803;28;83195;-63
2021/07/18 04:06:05;;;;;;;18.15;12.00;;;27.10;64.90;;;;;;6173005;28;84686;-65
2021/07/18 04:09:06;;;;;;;17.27;11.02;;;27.20;65.00;;;;;;6180141;28;83000;-67
2021/07/18 04:12:06;;;;;;;14.55;11.32;;;27.20;65.30;;;;;;6179817;28;83363;-67
2021/07/18 04:15:07;;;;;;;22.90;11.38;;;27.20;65.10;;;;;;6176676;28;82921;-67
2021/07/18 04:18:07;;;;;;;16.40;10.70;;;27.20;65.00;;;;;;6180264;28;83165;-67
2021/07/18 04:21:08;;;;;;;13.57;11.00;;;27.20;65.00;;;;;;6181260;28;83211;-67
2021/07/18 04:24:08;;;;;;;13.82;10.65;;;27.20;64.90;;;;;;6178596;28;82981;-66
2021/07/18 04:27:09;;;;;;;18.55;10.75;;;27.20;65.30;;;;;;6168894;28;84062;-65
2021/07/18 04:30:09;;;;;;;16.58;10.98;;;27.20;65.10;;;;;;6172395;28;83409;-65
2021/07/18 04:33:10;;;;;;;18.05;11.05;;;27.20;65.10;;;;;;6176678;28;83132;-66
2021/07/18 04:36:10;;;;;;;13.18;10.48;;;27.20;65.20;;;;;;6180180;28;83072;-66
2021/07/18 04:39:11;;;;;;;14.43;10.05;;;27.20;65.00;;;;;;6179606;28;84067;-67
2021/07/18 04:42:12;;;;;;;14.15;10.55;;;27.20;64.80;;;;;;6177587;28;83031;-67
2021/07/18 04:45:12;;;;;;;14.80;10.70;;;27.30;64.70;;;;;;6175685;28;83839;-66
2021/07/18 04:48:12;;;;;;;13.93;10.25;;;27.30;64.80;;;;;;6173823;28;83460;-65
2021/07/18 04:51:13;;;;;;;13.02;10.07;;;27.30;65.00;;;;;;6180204;28;85125;-66
2021/07/18 04:54:13;;;;;;;17.23;10.18;;;27.30;64.70;;;;;;6169891;28;85714;-65
2021/07/18 04:57:15;;;;;;;16.30;10.07;;;27.30;65.00;;;;;;6179522;28;82810;-65
2021/07/18 05:00:16;;;;;;;15.98;9.95;;;27.30;64.80;;;;;;6163236;28;83299;-65
2021/07/18 05:03:16;;;;;;;16.10;10.00;;;27.30;64.80;;;;;;6181660;28;86157;-65
2021/07/18 05:06:17;;;;;;;16.48;10.35;;;27.40;64.80;;;;;;6170615;28;83874;-65
2021/07/18 05:09:17;;;;;;;17.25;10.88;;;27.30;64.80;;;;;;6166587;28;83383;-66
2021/07/18 05:12:18;;;;;;;19.65;11.45;;;27.40;65.00;;;;;;6166432;28;83049;-66
2021/07/18 05:15:18;;;;;;;13.70;11.02;;;27.40;65.10;;;;;;6168407;28;84266;-66
2021/07/18 05:18:19;;;;;;;16.60;12.10;;;27.30;65.50;;;;;;6180400;28;83619;-65
2021/07/18 05:21:19;;;;;;;25.17;12.65;;;27.40;65.40;;;;;;6177928;28;84409;-65
2021/07/18 05:24:19;;;;;;;19.88;12.48;;;27.40;65.40;;;;;;6173919;28;83975;-66
2021/07/18 05:27:20;;;;;;;18.15;12.32;;;27.40;66.00;;;;;;6175467;28;83172;-65
2021/07/18 05:30:20;;;;;;;20.10;12.60;;;27.40;65.90;;;;;;6179633;28;83189;-65
2021/07/18 05:33:21;;;;;;;18.58;12.85;;;27.40;65.90;;;;;;6176577;28;82899;-66
2021/07/18 05:36:21;;;;;;;16.60;12.55;;;27.40;66.00;;;;;;6171286;28;84397;-65
2021/07/18 05:39:22;;;;;;;21.58;14.40;;;27.40;66.00;;;;;;6175282;28;83421;-65
2021/07/18 05:42:22;;;;;;;22.17;14.13;;;27.40;66.40;;;;;;6178446;28;84216;-66
2021/07/18 05:45:23;;;;;;;19.10;13.40;;;27.40;66.30;;;;;;6176135;28;83254;-66
2021/07/18 05:48:24;;;;;;;24.92;14.90;;;27.40;66.10;;;;;;6174476;28;83040;-67
2021/07/18 05:51:25;;;;;;;23.00;13.80;;;27.40;65.70;;;;;;6179251;28;83112;-66
2021/07/18 05:54:25;;;;;;;23.15;13.57;;;27.40;65.90;;;;;;6167081;28;83505;-65
2021/07/18 05:57:26;;;;;;;20.23;14.00;;;27.40;64.90;;;;;;6176448;28;83052;-65
2021/07/18 06:00:26;;;;;;;19.98;12.85;;;27.50;65.60;;;;;;6178569;28;83205;-67
2021/07/18 06:03:27;;;;;;;23.90;14.43;;;27.40;65.50;;;;;;6170687;28;82753;-66
2021/07/18 06:06:27;;;;;;;19.90;13.32;;;27.50;65.80;;;;;;6173128;28;84402;-67
2021/07/18 06:09:28;;;;;;;21.50;15.02;;;27.40;66.10;;;;;;6177607;28;84019;-65
2021/07/18 06:12:28;;;;;;;16.23;13.27;;;27.40;66.20;;;;;;6177570;28;83102;-67
2021/07/18 06:15:29;;;;;;;23.15;15.75;;;27.40;66.30;;;;;;6179559;28;82993;-65
2021/07/18 06:18:29;;;;;;;23.50;15.10;;;27.40;66.00;;;;;;6177840;28;83288;-67
2021/07/18 06:21:30;;;;;;;22.05;16.70;;;27.40;66.10;;;;;;6166067;28;83200;-67
2021/07/18 06:24:30;;;;;;;19.48;14.73;;;27.50;66.70;;;;;;6170426;28;83112;-67
2021/07/18 06:27:31;;;;;;;20.90;14.77;;;27.40;66.40;;;;;;6160254;28;83359;-67
2021/07/18 06:30:31;;;;;;;22.70;16.50;;;27.40;66.20;;;;;;6161915;28;82919;-68
2021/07/18 06:33:32;;;;;;;28.02;15.38;;;27.40;66.20;;;;;;6166664;28;83534;-67
2021/07/18 06:36:32;;;;;;;21.13;16.00;;;27.40;66.10;;;;;;6160900;28;83109;-67
2021/07/18 06:39:32;;;;;;;22.40;15.70;;;27.50;66.30;;;;;;6165800;28;83822;-67
2021/07/18 06:42:33;;;;;;;25.38;17.30;;;27.50;66.50;;;;;;6160320;28;83230;-66
2021/07/18 06:45:33;;;;;;;24.70;17.27;;;27.40;66.50;;;;;;6168224;28;83399;-68
2021/07/18 06:48:34;;;;;;;21.45;16.55;;;27.50;66.40;;;;;;6165633;28;84030;-66
2021/07/18 06:51:34;;;;;;;24.25;16.35;;;27.50;66.00;;;;;;6175649;28;83345;-67
2021/07/18 06:54:35;;;;;;;30.42;17.42;;;27.50;66.90;;;;;;6175330;28;84326;-65
2021/07/18 06:57:35;;;;;;;26.27;16.15;;;27.40;67.00;;;;;;6168991;28;84452;-69
2021/07/18 07:00:36;;;;;;;25.20;16.88;;;27.50;66.80;;;;;;6177594;28;83139;-70
2021/07/18 07:03:36;;;;;;;20.10;16.70;;;27.50;66.80;;;;;;6177074;28;84216;-66
2021/07/18 07:06:37;;;;;;;25.85;17.13;;;27.50;66.60;;;;;;6165163;28;83023;-68
2021/07/18 07:09:37;;;;;;;24.63;17.52;;;27.50;67.40;;;;;;6166096;28;84378;-68
2021/07/18 07:12:38;;;;;;;26.65;17.35;;;27.50;66.70;;;;;;6173563;28;83335;-66
2021/07/18 07:15:38;;;;;;;30.58;17.13;;;27.50;66.60;;;;;;6173894;28;83893;-66
2021/07/18 07:18:39;;;;;;;25.77;17.58;;;27.40;65.50;;;;;;6177542;28;83528;-68
2021/07/18 07:21:39;;;;;;;26.17;17.85;;;27.50;66.80;;;;;;6167024;28;83381;-70
2021/07/18 07:24:40;;;;;;;22.00;17.02;;;27.50;66.70;;;;;;6174753;28;83572;-67
2021/07/18 07:27:40;;;;;;;27.83;18.25;;;27.50;67.60;;;;;;6175918;28;85012;-68
2021/07/18 07:30:41;;;;;;;24.02;17.00;;;27.50;67.50;;;;;;6170602;28;85868;-67
2021/07/18 07:33:41;;;;;;;29.83;18.77;;;27.60;67.70;;;;;;6162888;28;83933;-68
2021/07/18 07:36:42;;;;;;;27.55;19.10;;;27.60;67.90;;;;;;6169011;28;83417;-68
2021/07/18 07:39:42;;;;;;;26.05;18.30;;;27.60;68.00;;;;;;6169950;28;83187;-68
2021/07/18 07:42:43;;;;;;;32.95;19.73;;;27.60;68.00;;;;;;6175906;28;84117;-71
2021/07/18 07:45:43;;;;;;;25.50;18.65;;;27.50;68.00;;;;;;6172545;28;83282;-69
2021/07/18 07:48:44;;;;;;;28.65;19.52;;;27.50;67.00;;;;;;6176841;28;83892;-67
2021/07/18 07:51:44;;;;;;;27.30;18.63;;;27.50;67.80;;;;;;6162203;28;84549;-68
2021/07/18 07:54:45;;;;;;;35.00;21.27;;;27.50;67.90;;;;;;6173087;28;83096;-68
2021/07/18 07:57:45;;;;;;;29.63;20.65;;;27.50;68.00;;;;;;6171114;28;83308;-68
2021/07/18 08:00:46;;;;;;;29.05;18.83;;;27.50;67.40;;;;;;6170886;28;83249;-67
2021/07/18 08:03:46;;;;;;;28.58;18.15;;;27.50;67.20;;;;;;6170019;28;83015;-67
2021/07/18 08:06:47;;;;;;;26.75;17.23;;;27.50;67.80;;;;;;6171898;28;84433;-69
2021/07/18 08:09:47;;;;;;;29.33;17.40;;;27.50;67.80;;;;;;6169940;28;83451;-67
2021/07/18 08:12:48;;;;;;;28.55;17.52;;;27.60;67.90;;;;;;6160994;28;82896;-67
2021/07/18 08:15:48;;;;;;;24.45;16.27;;;27.70;68.00;;;;;;6172980;28;83113;-68
2021/07/18 08:18:48;;;;;;;25.42;17.98;;;27.60;67.50;;;;;;6179642;28;90121;-66
2021/07/18 08:21:49;;;;;;;23.55;16.90;;;27.60;67.60;;;;;;6175172;28;83726;-67
2021/07/18 08:24:49;;;;;;;21.63;15.43;;;27.60;67.80;;;;;;6166037;28;82888;-67
2021/07/18 08:27:50;;;;;;;24.25;16.80;;;27.70;67.70;;;;;;6172105;28;85610;-66
2021/07/18 08:30:50;;;;;;;20.33;16.00;;;27.70;67.70;;;;;;6178624;28;82901;-67
2021/07/18 08:33:52;;;;;;;22.48;16.55;;;27.70;67.60;;;;;;6170707;28;83413;-67
2021/07/18 08:36:53;;;;;;;27.15;17.10;;;27.70;67.70;;;;;;6170167;28;84302;-68
2021/07/18 08:39:53;;;;;;;25.70;17.08;;;27.60;67.70;;;;;;6172953;28;82971;-68
2021/07/18 08:42:54;;;;;;;20.65;15.68;;;27.70;67.80;;;;;;6174066;28;84122;-66
2021/07/18 08:45:54;;;;;;;21.63;17.23;;;27.70;67.60;;;;;;6176135;28;83430;-66
2021/07/18 08:48:55;;;;;;;19.60;15.48;;;27.70;67.60;;;;;;6176882;28;83412;-67
2021/07/18 08:51:55;;;;;;;21.20;16.10;;;27.70;67.40;;;;;;6175648;28;82800;-66
2021/07/18 08:54:56;;;;;;;28.83;16.98;;;27.70;67.50;;;;;;6173118;28;83960;-68
2021/07/18 08:57:59;;;;;;;23.15;16.98;;;27.70;67.40;;;;;;6176625;28;83203;-67
2021/07/18 09:01:00;;;;;;;23.50;15.93;;;27.70;67.50;;;;;;6179668;28;83040;-66
2021/07/18 09:04:00;;;;;;;28.92;18.23;;;27.70;67.40;;;;;;6173159;28;83349;-66
2021/07/18 09:07:01;;;;;;;21.88;16.73;;;27.80;67.70;;;;;;6167394;28;83354;-67
2021/07/18 09:10:01;;;;;;;23.58;16.50;;;27.80;68.20;;;;;;6171962;28;84805;-67
2021/07/18 09:13:02;;;;;;;22.63;19.00;;;27.70;67.80;;;;;;6169719;28;83173;-68
2021/07/18 09:16:02;;;;;;;21.77;17.30;;;27.70;69.80;;;;;;6165723;28;83115;-66
2021/07/18 09:19:02;;;;;;;26.00;17.77;;;27.80;68.70;;;;;;6179887;28;84715;-67
2021/07/18 09:22:03;;;;;;;22.63;17.73;;;27.80;68.90;;;;;;6170455;28;83258;-67
2021/07/18 09:25:04;;;;;;;26.48;18.23;;;27.80;68.80;;;;;;6168889;28;89200;-67
2021/07/18 09:28:04;;;;;;;23.10;16.80;;;27.80;69.70;;;;;;6163893;28;85406;-69
2021/07/18 09:31:05;;;;;;;24.45;17.88;;;27.80;70.30;;;;;;6164432;28;83029;-67
2021/07/18 09:34:05;;;;;;;22.63;17.92;;;27.90;69.90;;;;;;6160417;28;86074;-68
2021/07/18 09:37:06;;;;;;;31.40;20.52;;;27.90;69.80;;;;;;6176005;28;83148;-66
2021/07/18 09:40:06;;;;;;;27.75;19.85;;;27.90;69.50;;;;;;6165409;28;84884;-66
2021/07/18 09:43:07;;;;;;;30.80;20.25;;;27.90;69.00;;;;;;6171316;28;83164;-67
2021/07/18 09:46:08;;;;;;;31.10;19.73;;;27.80;69.10;;;;;;6167863;28;83278;-69
2021/07/18 09:49:09;;;;;;;24.52;19.17;;;27.80;69.20;;;;;;6160851;28;83638;-66
2021/07/18 09:52:09;;;;;;;26.90;19.58;;;27.80;68.90;;;;;;6162624;28;85926;-66
2021/07/18 09:55:10;;;;;;;25.52;18.55;;;27.80;69.70;;;;;;6178128;28;84288;-68
2021/07/18 09:58:10;;;;;;;24.63;18.33;;;27.90;69.70;;;;;;6185979;28;83875;-67
2021/07/18 10:01:11;;;;;;;26.42;19.67;;;27.90;69.80;;;;;;6187207;28;83263;-67
2021/07/18 10:04:11;;;;;;;24.52;18.88;;;27.90;69.60;;;;;;6189762;28;83536;-66
2021/07/18 10:07:12;;;;;;;25.02;19.05;;;27.90;69.80;;;;;;6176955;28;83294;-66
2021/07/18 10:10:12;;;;;;;26.02;18.90;;;27.90;69.70;;;;;;6169721;28;84405;-67
2021/07/18 10:13:13;;;;;;;29.58;18.95;;;27.90;69.60;;;;;;6170577;28;84659;-66
2021/07/18 10:16:13;;;;;;;24.92;18.52;;;27.90;69.50;;;;;;6188133;28;83085;-65
2021/07/18 10:19:14;;;;;;;25.20;16.88;;;27.90;69.40;;;;;;6166733;28;83338;-65
2021/07/18 10:22:14;;;;;;;29.77;18.15;;;27.90;69.10;;;;;;6167340;28;83265;-66
2021/07/18 10:25:15;;;;;;;23.10;16.35;;;27.90;68.40;;;;;;6170837;28;84311;-66
2021/07/18 10:28:17;;;;;;;23.67;14.57;;;27.90;68.20;;;;;;6164118;28;84268;-67
2021/07/18 10:31:18;;;;;;;22.92;14.55;;;27.90;67.80;;;;;;6164979;28;83318;-66
2021/07/18 10:34:18;;;;;;;20.95;14.10;;;27.90;68.20;;;;;;6162332;28;84194;-66
2021/07/18 10:37:19;;;;;;;19.00;12.43;;;27.80;68.50;;;;;;6185350;28;83089;-66
2021/07/18 10:40:21;;;;;;;19.63;12.60;;;27.80;68.00;;;;;;6176662;28;84031;-67
2021/07/18 10:43:22;;;;;;;17.58;11.60;;;27.90;67.40;;;;;;6164975;28;86308;-65
2021/07/18 10:46:22;;;;;;;18.00;12.18;;;27.90;66.40;;;;;;6168716;28;84191;-65
2021/07/18 10:49:23;;;;;;;14.00;10.95;;;27.80;66.20;;;;;;6174313;28;83287;-64
2021/07/18 10:52:23;;;;;;;17.15;11.70;;;27.90;66.30;;;;;;6171677;28;84250;-65
2021/07/18 10:55:24;;;;;;;19.15;12.23;;;27.90;65.90;;;;;;6176442;28;86297;-65
2021/07/18 10:58:24;;;;;;;14.10;10.88;;;27.90;65.70;;;;;;6157683;28;85816;-67
2021/07/18 11:01:25;;;;;;;16.02;11.32;;;27.90;65.90;;;;;;6189748;28;84303;-64
2021/07/18 11:04:26;;;;;;;18.35;11.38;;;27.80;65.60;;;;;;6176301;28;83016;-65
2021/07/18 11:07:26;;;;;;;16.33;11.38;;;27.90;65.50;;;;;;6174959;28;83001;-64
2021/07/18 11:10:27;;;;;;;20.40;12.73;;;27.90;65.50;;;;;;6174913;28;83294;-63
2021/07/18 11:13:27;;;;;;;18.65;11.20;;;27.90;65.80;;;;;;6168411;28;84362;-64
2021/07/18 11:16:28;;;;;;;19.02;12.52;;;27.90;65.70;;;;;;6173782;28;83889;-64
2021/07/18 11:19:28;;;;;;;19.38;11.63;;;27.90;65.80;;;;;;6170054;28;83955;-64
2021/07/18 11:22:29;;;;;;;18.38;13.18;;;27.90;66.00;;;;;;6167932;28;85188;-64
2021/07/18 11:25:29;;;;;;;23.92;16.35;;;27.90;65.40;;;;;;6168702;28;83869;-63
2021/07/18 11:28:33;;;;;;;26.77;18.88;;;27.80;66.50;;;;;;6169592;28;83144;-65
2021/07/18 11:31:34;;;;;;;33.60;18.35;;;27.80;67.30;;;;;;6164554;28;84458;-64
2021/07/18 11:34:35;;;;;;;24.23;18.05;;;27.80;67.70;;;;;;6159146;28;83090;-65
2021/07/18 11:37:39;;;;;;;20.73;15.73;;;27.80;67.60;;;;;;6175525;28;83050;-65
2021/07/18 11:40:40;;;;;;;25.10;17.35;;;27.80;67.70;;;;;;6167378;28;84205;-64
2021/07/18 11:43:40;;;;;;;25.67;18.63;;;27.90;67.90;;;;;;6174506;28;83239;-64
2021/07/18 11:46:41;;;;;;;21.75;17.33;;;27.80;68.00;;;;;;6162631;28;85795;-65
2021/07/18 11:49:41;;;;;;;32.28;21.33;;;27.80;68.00;;;;;;6175255;28;83045;-64
2021/07/18 11:52:42;;;;;;;31.70;22.80;;;27.80;68.50;;;;;;6172435;28;84626;-65
2021/07/18 11:55:42;;;;;;;27.83;20.77;;;27.80;68.40;;;;;;6169134;28;83259;-64
2021/07/18 11:58:43;;;;;;;28.08;20.58;;;27.70;68.50;;;;;;6172958;28;84538;-66
2021/07/18 12:01:43;;;;;;;28.52;20.45;;;27.80;68.30;;;;;;6179903;28;83478;-65
2021/07/18 12:04:44;;;;;;;31.15;21.90;;;27.80;68.40;;;;;;6178592;28;83680;-66
2021/07/18 12:07:45;;;;;;;33.95;22.55;;;27.80;68.30;;;;;;6174335;28;84254;-66
2021/07/18 12:10:45;;;;;;;36.78;23.33;;;27.70;68.30;;;;;;6165774;28;84033;-67
2021/07/18 12:13:47;;;;;;;35.08;24.10;;;27.80;68.10;;;;;;6164759;28;84457;-67
2021/07/18 12:16:48;;;;;;;31.00;22.83;;;27.80;68.20;;;;;;6164318;28;83526;-67
2021/07/18 12:19:48;;;;;;;31.08;22.33;;;27.80;68.40;;;;;;6170594;28;83114;-65
2021/07/18 12:22:49;;;;;;;33.42;23.60;;;27.90;68.30;;;;;;6173191;28;85889;-67
2021/07/18 12:25:49;;;;;;;34.30;23.00;;;27.90;68.40;;;;;;6174844;28;83426;-64
2021/07/18 12:28:49;;;;;;;31.88;22.30;;;27.90;68.40;;;;;;6164604;28;83158;-66
2021/07/18 12:31:50;;;;;;;29.58;21.48;;;27.90;68.10;;;;;;6174907;28;83333;-66
2021/07/18 12:34:51;;;;;;;30.48;21.65;;;27.90;68.90;;;;;;6177069;28;83322;-67
2021/07/18 12:37:51;;;;;;;36.53;21.45;;;27.90;68.20;;;;;;6174646;28;84121;-67
2021/07/18 12:40:52;;;;;;;29.17;20.95;;;27.90;68.40;;;;;;6180299;28;84205;-64
2021/07/18 12:43:52;;;;;;;32.67;22.17;;;27.90;68.50;;;;;;6171746;28;83329;-67
2021/07/18 12:46:53;;;;;;;32.40;20.20;;;27.90;68.40;;;;;;6163471;28;83861;-66
2021/07/18 12:49:53;;;;;;;28.25;19.58;;;27.90;68.40;;;;;;6167636;28;83120;-67
2021/07/18 12:52:54;;;;;;;31.23;20.58;;;27.90;68.60;;;;;;6179252;28;90269;-67
2021/07/18 12:55:57;;;;;;;27.98;20.60;;;27.90;68.20;;;;;;6169435;28;83437;-67
2021/07/18 12:58:58;;;;;;;27.17;18.85;;;27.90;67.90;;;;;;6173153;28;83610;-67
2021/07/18 13:01:58;;;;;;;27.30;18.73;;;27.90;68.10;;;;;;6169667;28;83074;-68
2021/07/18 13:04:59;;;;;;;25.70;18.98;;;27.90;68.00;;;;;;6167872;28;84198;-67
2021/07/18 13:07:59;;;;;;;26.33;19.35;;;27.90;68.30;;;;;;6173099;28;83006;-68
2021/07/18 13:11:00;;;;;;;30.38;16.90;;;27.90;67.70;;;;;;6164777;28;83389;-66
2021/07/18 13:14:00;;;;;;;26.77;18.10;;;27.90;67.50;;;;;;6177044;28;83067;-65
2021/07/18 13:17:01;;;;;;;26.35;19.02;;;27.90;67.30;;;;;;6166956;28;82938;-68
2021/07/18 13:20:03;;;;;;;25.70;18.02;;;27.90;67.70;;;;;;6168951;28;83389;-68
2021/07/18 13:23:03;;;;;;;35.45;19.05;;;27.90;67.60;;;;;;6178574;28;82939;-67
2021/07/18 13:26:04;;;;;;;24.95;17.52;;;27.90;67.70;;;;;;6165329;28;84002;-68
2021/07/18 13:29:04;;;;;;;28.40;19.15;;;27.90;67.80;;;;;;6175176;28;82810;-68
2021/07/18 13:32:05;;;;;;;32.08;21.55;;;27.90;67.70;;;;;;6170432;28;83463;-68
2021/07/18 13:35:08;;;;;;;41.50;22.90;;;27.90;67.70;;;;;;6169010;28;83040;-66
2021/07/18 13:38:08;;;;;;;36.10;23.35;;;27.90;67.70;;;;;;6168832;28;84168;-66
2021/07/18 13:41:09;;;;;;;33.30;23.50;;;27.90;67.60;;;;;;6168979;28;83180;-67
2021/07/18 13:44:09;;;;;;;41.63;25.33;;;27.90;67.60;;;;;;6168738;28;84820;-68
2021/07/18 13:47:10;;;;;;;34.25;23.50;;;28.00;67.60;;;;;;6171247;28;83243;-68
2021/07/18 13:50:10;;;;;;;35.22;23.80;;;28.00;67.60;;;;;;6168431;28;83335;-68
2021/07/18 13:53:11;;;;;;;33.85;23.45;;;28.00;67.40;;;;;;6165358;28;83999;-67
2021/07/18 13:56:12;;;;;;;34.70;23.98;;;28.00;67.40;;;;;;6165194;28;83296;-68
2021/07/18 13:59:12;;;;;;;34.88;24.58;;;28.00;67.20;;;;;;6172731;28;84166;-68
2021/07/18 14:02:13;;;;;;;41.33;26.10;;;28.10;67.20;;;;;;6182212;28;83312;-68
2021/07/18 14:05:13;;;;;;;35.45;25.85;;;28.00;67.20;;;;;;6172175;28;84022;-67
2021/07/18 14:08:14;;;;;;;38.38;25.35;;;28.10;67.20;;;;;;6171137;28;83606;-67
2021/07/18 14:11:14;;;;;;;38.90;26.17;;;28.10;67.30;;;;;;6168662;28;84197;-68
2021/07/18 14:14:15;;;;;;;37.20;27.42;;;28.10;67.20;;;;;;6174573;28;83372;-70
2021/07/18 14:17:15;;;;;;;41.42;25.80;;;28.10;67.20;;;;;;6173202;28;83241;-70
2021/07/18 14:20:16;;;;;;;40.95;27.92;;;28.10;67.30;;;;;;6172911;28;83010;-72
2021/07/18 14:23:16;;;;;;;34.97;25.48;;;28.10;67.20;;;;;;6172744;28;85765;-71
2021/07/18 14:26:17;;;;;;;44.22;27.95;;;28.10;67.20;;;;;;6162740;28;83141;-71
2021/07/18 14:29:17;;;;;;;37.50;26.10;;;28.10;67.10;;;;;;6177475;28;82844;-69
2021/07/18 14:32:18;;;;;;;38.50;26.70;;;28.10;66.80;;;;;;6180581;28;84513;-71
2021/07/18 14:35:18;;;;;;;37.83;26.80;;;28.10;66.60;;;;;;6189708;28;86365;-71
2021/07/18 14:38:19;;;;;;;35.85;26.75;;;28.10;66.40;;;;;;6160842;28;84492;-70
2021/07/18 14:41:19;;;;;;;40.70;28.73;;;28.20;66.50;;;;;;6175259;28;83034;-70
2021/07/18 14:44:20;;;;;;;34.25;27.00;;;28.20;66.30;;;;;;6174844;28;83682;-71
2021/07/18 14:47:20;;;;;;;37.90;27.55;;;28.20;66.20;;;;;;6166098;28;84189;-70
2021/07/18 14:50:21;;;;;;;41.30;27.35;;;28.20;66.30;;;;;;6167854;28;83508;-71
2021/07/18 14:53:21;;;;;;;45.15;28.02;;;28.20;66.30;;;;;;6168958;28;83415;-68
2021/07/18 14:56:22;;;;;;;39.47;28.00;;;28.20;66.40;;;;;;6170582;28;83038;-68
2021/07/18 14:59:22;;;;;;;42.35;27.85;;;28.20;66.50;;;;;;6165883;28;83809;-68
2021/07/18 15:02:23;;;;;;;35.35;26.30;;;28.20;66.50;;;;;;6172657;28;85850;-68
2021/07/18 15:05:23;;;;;;;36.88;26.52;;;28.20;66.50;;;;;;6173786;28;83141;-68
2021/07/18 15:08:25;;;;;;;38.15;25.45;;;28.20;66.50;;;;;;6176567;28;83136;-68
2021/07/18 15:11:26;;;;;;;37.17;25.63;;;28.20;66.50;;;;;;6169823;28;83311;-69
2021/07/18 15:14:26;;;;;;;31.63;23.25;;;28.20;66.50;;;;;;6174018;28;83701;-68
2021/07/18 15:17:27;;;;;;;33.97;25.08;;;28.20;66.50;;;;;;6174895;28;84314;-66